Louis Armstrong New Orleans International Airport
KMSY : now visible

Airfield :











YOU CAN JOIN US ON...

 
LOGIN :

Register | Disclaimer

   EN    FR    IT 

 









Legend :    VFR   Marginal VFR   IFR   Intensive IFR   Very Intensive IFR
Visi :
Ceiling :
>= 8 km
>= 3000ft
5 to 8 km
1000 to 3000 ft
1500m to 5 km
500 to 1000 ft
800 to 1500m
200 to 500 ft
< 800m
< 200 ft
Symbols :   Thunderstorms  Fog  Heavy snow  Heavy precipitations  Wind > 20 kt






- Airport Elevation : 4 ft
- IATA code : MSY


KMSY - Louis Armstrong New Orleans International

CURRENT METAR :
  • 062353Z 13010KT 10SM FEW030 BKN250 24/18 A3004 RMK AO2 SLP174 T02440178 10283 20244 55003

EXPIRED METARs :
  • 062253Z 14011KT 10SM FEW029 BKN045 BKN150 BKN250 26/18 A3004 RMK AO2 SLP174 T02560183
  • 062153Z 14012KT 10SM SCT034 BKN044 BKN150 BKN250 27/18 A3003 RMK AO2 SLP173 T02670178

TAF KMSY
Valid from the 07 at 00:00 until the 08 at 06:00 UTC


062340Z 0700/0806 14005KT P6SM FEW025 SCT050 BKN150
FM070900 00000KT P6SM BKN025
FM071100 00000KT P6SM BKN008
FM071300 17005KT P6SM SCT006 BKN015
FM071800 19006KT P6SM SCT025 BKN045



MET'MAP, your aeronautical weather chart ! - Copyright ORBIFLY December 2007 - Disclaimer

ORBIFLY MET'MAP TEAM :

Programming & Development : Alexandra Zaïnal
Concept & original design : Baudouin d'Aumeries
Assistance for programming : Marc-Olivier Méhu
Technical & hardware support : Manuel Goepfert

Contact : metmap@orbifly.com




SOURCES & CREDITS :

   NOAA       Earth
Advisory